Terminal Aerodrome Forecast
Issued by NWS Des Moines, IA

Home | Current Version | Previous Version | Text Only | Print | Product List | Glossary On
Versions: 1 2 3 4 5 6 7 8 9 10 11 12 13 14 15 16 17 18 19 20 21 22 23 24 25 26 27 28 29 30 31 32 33 34 35 36 37 38 39 40 41 42 43 44 45 46 47 48 49 50
000
FTUS43 KDMX 231940 AAC
TAFALO
TAF AMD
KALO 231940Z 2320/2418 15005KT 2SM -RA BR OVC004
     FM232000 32010KT 3SM -RA BR BKN007 OVC012
     FM240400 32016G26KT 5SM -RA BR SCT007 OVC012
     FM240900 31020G30KT 3SM -SN BR SCT007 OVC014
     FM241400 31023G32KT 5SM -SN BR BKN015 OVC022=

USA.gov is the U.S. government's official web portal to all federal, state and local government web resources and services.